Time;durP1;ratioP1;P1;durP2;ratioP2;P2;SDS_P1;SDS_P2;PMS_P1;PMS_P2;Temp;Humidity;BMP_temperature;BMP_pressure;BME280_temperature;BME280_humidity;BME280_pressure;Samples;Min_cycle;Max_cycle;Signal;HPM_P1;HPM_P2
2022/11/10 00:02:14;;;;;;;1.10;0.40;;;;;;;11.02;90.01;100384.63;5014275;28;20180;-76
2022/11/10 00:04:39;;;;;;;1.03;0.70;;;;;;;10.99;90.64;100398.09;5013724;28;20168;-76
2022/11/10 00:07:05;;;;;;;2.17;0.83;;;;;;;10.97;90.54;100400.34;5013520;28;20271;-79
2022/11/10 00:09:30;;;;;;;0.53;0.30;;;;;;;10.93;91.03;100391.97;5012896;28;20544;-78
2022/11/10 00:11:55;;;;;;;6.23;0.97;;;;;;;10.92;91.03;100405.94;5013749;28;20185;-76
2022/11/10 00:17:04;;;;;;;0.63;0.57;;;;;;;10.89;91.44;100403.84;5013845;28;20234;-80
2022/11/10 00:19:30;;;;;;;0.83;0.80;;;;;;;10.85;91.17;100406.41;5013817;28;20177;-75
2022/11/10 00:21:56;;;;;;;0.27;0.27;;;;;;;10.86;91.39;100415.41;4996195;28;20565;-75
2022/11/10 00:24:22;;;;;;;0.40;0.40;;;;;;;10.82;91.86;100414.41;5013480;28;20319;-77
2022/11/10 00:26:47;;;;;;;0.87;0.87;;;;;;;10.78;91.74;100424.34;5013604;28;20262;-78
2022/11/10 00:29:13;;;;;;;0.77;0.77;;;;;;;10.75;92.13;100403.94;5013410;28;20208;-74
2022/11/10 00:31:39;;;;;;;5.43;1.13;;;;;;;10.72;92.30;100427.22;5013966;28;20185;-77
2022/11/10 00:34:07;;;;;;;3.80;2.13;;;;;;;10.70;92.78;100413.09;5013384;28;20259;-76
2022/11/10 00:36:35;;;;;;;2.37;2.17;;;;;;;10.70;92.71;100415.81;5012745;28;20172;-75
2022/11/10 00:39:01;;;;;;;3.33;2.00;;;;;;;10.73;93.16;100422.56;5013659;28;20183;-78
2022/11/10 00:41:26;;;;;;;18.03;2.10;;;;;;;10.70;92.94;100420.44;5013482;28;20180;-77
2022/11/10 00:43:52;;;;;;;8.97;2.63;;;;;;;10.67;93.46;100435.53;5013040;28;20376;-80
2022/11/10 00:46:17;;;;;;;2.57;2.37;;;;;;;10.64;93.55;100427.97;5028321;28;20184;-75
2022/11/10 00:48:42;;;;;;;3.33;2.93;;;;;;;10.57;94.11;100427.63;5013169;28;20255;-75
2022/11/10 00:51:16;;;;;;;3.17;2.57;;;;;;;10.54;94.48;100430.16;5013002;28;20243;-76
2022/11/10 00:53:42;;;;;;;2.13;1.43;;;;;;;10.51;94.63;100420.66;5013033;28;20254;-78
2022/11/10 00:56:07;;;;;;;2.87;2.00;;;;;;;10.47;95.27;100427.06;5012775;28;20223;-77
2022/11/10 00:58:32;;;;;;;3.47;2.23;;;;;;;10.48;95.40;100431.41;5013001;28;20177;-74
2022/11/10 01:01:02;;;;;;;17.93;2.63;;;;;;;10.43;95.85;100433.16;5013078;28;20501;-75
2022/11/10 01:03:28;;;;;;;3.63;2.17;;;;;;;10.41;95.53;100420.91;5012656;28;20978;-74
2022/11/10 01:05:53;;;;;;;2.47;2.27;;;;;;;10.38;95.92;100433.25;5012924;28;20252;-77
2022/11/10 01:08:18;;;;;;;1.07;1.03;;;;;;;10.39;95.85;100436.78;5021413;28;20187;-76
2022/11/10 01:10:44;;;;;;;3.17;1.03;;;;;;;10.36;96.40;100440.97;5032711;28;20207;-76
2022/11/10 01:13:09;;;;;;;10.43;2.23;;;;;;;10.33;96.16;100446.25;5032727;28;20184;-75
2022/11/10 01:15:38;;;;;;;4.27;2.50;;;;;;;10.32;96.49;100453.63;5032814;28;20186;-80
2022/11/10 01:18:04;;;;;;;0.50;0.50;;;;;;;10.28;96.48;100460.81;5032449;28;20770;-78
2022/11/10 01:20:31;;;;;;;13.10;1.97;;;;;;;10.29;96.65;100461.63;5032319;28;20195;-74
2022/11/10 01:22:56;;;;;;;8.63;2.33;;;;;;;10.28;96.62;100466.28;5032217;28;20520;-75
2022/11/10 01:25:22;;;;;;;10.93;3.73;;;;;;;10.29;96.55;100462.44;5032358;28;20263;-75
2022/11/10 01:27:47;;;;;;;8.93;2.53;;;;;;;10.27;96.44;100461.94;5032322;28;20259;-76
2022/11/10 01:30:13;;;;;;;10.23;1.70;;;;;;;10.26;96.78;100459.50;5031927;28;20212;-75
2022/11/10 01:32:38;;;;;;;2.60;2.07;;;;;;;10.28;96.73;100465.47;5032080;28;20258;-74
2022/11/10 01:35:04;;;;;;;4.20;2.33;;;;;;;10.27;96.58;100472.03;5032389;28;20194;-75
2022/11/10 01:37:29;;;;;;;1.53;1.00;;;;;;;10.25;96.86;100468.81;5031970;28;20234;-74
2022/11/10 01:39:55;;;;;;;20.90;3.07;;;;;;;10.25;96.75;100479.72;5031990;28;20183;-73
2022/11/10 01:42:40;;;;;;;1.97;1.87;;;;;;;10.23;96.77;100480.03;5031828;28;20538;-74
2022/11/10 01:45:23;;;;;;;0.40;0.40;;;;;;;10.18;97.09;100479.31;5031897;28;20184;-77
2022/11/10 01:48:05;;;;;;;2.37;1.60;;;;;;;10.15;97.31;100483.50;5030925;28;20194;-75
2022/11/10 01:50:35;;;;;;;6.53;2.07;;;;;;;10.11;97.42;100477.81;5031838;28;20617;-77
2022/11/10 01:53:04;;;;;;;3.23;2.33;;;;;;;10.09;97.69;100484.69;5031568;28;20183;-75
2022/11/10 01:55:31;;;;;;;1.00;1.00;;;;;;;10.04;97.97;100491.09;5031439;28;20195;-74
2022/11/10 01:57:56;;;;;;;1.80;1.53;;;;;;;10.03;98.29;100491.41;5031692;28;20180;-74
2022/11/10 02:00:23;;;;;;;1.37;1.27;;;;;;;10.01;98.46;100496.34;5031902;28;20199;-73
2022/11/10 02:02:59;;;;;;;0.73;0.73;;;;;;;9.99;98.49;100501.31;5031394;28;20176;-76
2022/11/10 02:05:26;;;;;;;12.20;3.60;;;;;;;9.97;98.57;100501.59;5031478;28;20215;-74
2022/11/10 02:07:51;;;;;;;6.27;2.63;;;;;;;9.94;98.78;100498.69;5013626;28;20267;-74
2022/11/10 02:10:19;;;;;;;3.60;3.30;;;;;;;9.96;98.78;100502.72;5031455;28;20286;-74
2022/11/10 02:12:45;;;;;;;5.40;2.23;;;;;;;9.93;98.84;100511.53;5031542;28;20258;-74
2022/11/10 02:15:14;;;;;;;6.07;2.60;;;;;;;9.93;98.74;100507.97;5031328;28;20686;-76
2022/11/10 02:17:40;;;;;;;0.57;0.57;;;;;;;9.90;99.39;100516.78;5031348;28;20186;-75
2022/11/10 02:20:09;;;;;;;10.97;2.20;;;;;;;9.86;99.46;100516.59;5031324;28;20679;-74
2022/11/10 02:22:35;;;;;;;4.87;3.43;;;;;;;9.84;99.27;100521.56;5031503;28;20200;-74
2022/11/10 02:25:00;;;;;;;5.70;2.77;;;;;;;9.84;99.90;100527.00;5031335;28;20613;-74
2022/11/10 02:27:25;;;;;;;2.10;1.87;;;;;;;9.82;100.00;100524.56;5031111;28;20172;-74
2022/11/10 02:29:51;;;;;;;6.57;2.07;;;;;;;9.78;100.00;100529.00;5031000;28;20229;-75
2022/11/10 02:32:16;;;;;;;1.37;1.37;;;;;;;9.77;100.00;100523.88;5031208;28;20176;-74
2022/11/10 02:34:42;;;;;;;2.47;1.50;;;;;;;9.76;100.00;100533.16;5030829;28;20183;-74
2022/11/10 02:37:09;;;;;;;4.63;3.00;;;;;;;9.75;100.00;100526.09;5030994;28;20241;-74
2022/11/10 02:39:34;;;;;;;3.23;2.93;;;;;;;9.69;100.00;100536.31;5030932;28;20168;-76
2022/11/10 02:41:59;;;;;;;6.43;3.70;;;;;;;9.67;100.00;100527.59;5031022;28;20540;-79
2022/11/10 02:44:25;;;;;;;6.67;2.03;;;;;;;9.66;100.00;100536.88;5031037;28;20179;-79
2022/11/10 02:46:50;;;;;;;6.33;1.20;;;;;;;9.66;100.00;100538.81;5031039;28;20179;-79
2022/11/10 02:49:15;;;;;;;3.23;2.10;;;;;;;9.64;100.00;100552.75;5032004;28;20265;-79
2022/11/10 02:51:40;;;;;;;3.87;2.67;;;;;;;9.65;100.00;100550.84;5031220;28;20214;-79
2022/11/10 02:54:06;;;;;;;0.80;0.80;;;;;;;9.67;100.00;100546.69;5030618;28;20623;-78
2022/11/10 02:56:31;;;;;;;3.97;3.03;;;;;;;9.67;100.00;100543.97;5030548;28;20176;-79
2022/11/10 02:58:56;;;;;;;4.10;1.70;;;;;;;9.68;100.00;100553.75;5030499;28;20504;-79
2022/11/10 03:01:22;;;;;;;10.73;1.70;;;;;;;9.67;100.00;100557.59;5031064;28;20842;-79
2022/11/10 03:03:47;;;;;;;10.47;3.37;;;;;;;9.65;100.00;100559.03;5030702;28;20168;-78
2022/11/10 03:06:12;;;;;;;2.43;2.20;;;;;;;9.60;100.00;100565.38;5030767;28;20302;-79
2022/11/10 03:08:38;;;;;;;3.70;2.20;;;;;;;9.58;100.00;100564.09;5030822;28;20168;-77
2022/11/10 03:11:04;;;;;;;1.60;1.50;;;;;;;9.55;100.00;100562.78;5030619;28;20217;-78
2022/11/10 03:13:29;;;;;;;2.10;2.00;;;;;;;9.56;100.00;100569.84;5030427;28;20337;-79
2022/11/10 03:15:55;;;;;;;2.10;1.47;;;;;;;9.56;100.00;100569.03;5030604;28;20268;-79
2022/11/10 03:18:20;;;;;;;1.37;1.37;;;;;;;9.56;100.00;100566.31;5030637;28;20180;-80
2022/11/10 03:20:47;;;;;;;2.00;1.40;;;;;;;9.56;100.00;100564.38;5030630;28;20176;-78
2022/11/10 03:23:13;;;;;;;7.10;3.27;;;;;;;9.56;100.00;100572.56;5030326;28;20175;-79
2022/11/10 03:25:38;;;;;;;5.60;2.10;;;;;;;9.59;100.00;100579.34;5030891;28;20654;-78
2022/11/10 03:28:03;;;;;;;6.30;1.87;;;;;;;9.54;100.00;100583.75;5030494;28;20654;-81
2022/11/10 03:30:29;;;;;;;2.03;1.80;;;;;;;9.54;100.00;100591.94;5030415;28;20686;-80
2022/11/10 03:32:54;;;;;;;3.90;3.60;;;;;;;9.53;100.00;100586.78;5030443;28;20204;-80
2022/11/10 03:35:20;;;;;;;10.00;4.10;;;;;;;9.56;100.00;100594.38;5030466;28;20227;-79
2022/11/10 03:37:45;;;;;;;4.10;3.20;;;;;;;9.53;100.00;100595.78;5030521;28;20234;-80
2022/11/10 03:40:11;;;;;;;2.50;2.30;;;;;;;9.48;100.00;100595.88;5030348;28;20178;-79
2022/11/10 03:42:43;;;;;;;18.47;3.80;;;;;;;9.46;100.00;100589.09;5030213;28;20176;-79
2022/11/10 03:45:10;;;;;;;4.00;3.70;;;;;;;9.45;100.00;100592.94;5030319;28;20188;-79
2022/11/10 03:47:35;;;;;;;1.47;1.37;;;;;;;9.46;100.00;100592.66;5030279;28;20230;-79
2022/11/10 03:50:00;;;;;;;9.43;3.57;;;;;;;9.44;100.00;100592.13;5030215;28;20253;-79
2022/11/10 03:52:26;;;;;;;1.90;1.53;;;;;;;9.42;100.00;100594.38;5030399;28;20180;-79
2022/11/10 03:54:51;;;;;;;2.83;2.57;;;;;;;9.39;100.00;100597.66;5029894;28;20172;-80
2022/11/10 03:57:16;;;;;;;8.17;2.20;;;;;;;9.39;100.00;100614.03;5012474;28;20275;-79
2022/11/10 03:59:41;;;;;;;3.97;3.47;;;;;;;9.42;100.00;100615.38;5030305;28;20270;-79
2022/11/10 04:02:07;;;;;;;8.60;2.37;;;;;;;9.40;100.00;100610.22;5030153;28;20267;-79
2022/11/10 04:10:00;;;;;;;4.60;3.40;;;;;;;9.44;100.00;100635.78;5030126;28;20227;-78
2022/11/10 04:17:54;;;;;;;3.57;3.23;;;;;;;9.47;100.00;100637.09;5033499;28;20712;-79
2022/11/10 04:20:19;;;;;;;4.37;3.47;;;;;;;9.51;100.00;100644.34;5033587;28;20175;-79
2022/11/10 04:25:28;;;;;;;16.87;3.50;;;;;;;9.57;100.00;100652.47;5033634;28;20222;-79
2022/11/10 04:27:53;;;;;;;4.70;3.77;;;;;;;9.59;100.00;100648.34;5033440;28;20172;-80
2022/11/10 04:30:19;;;;;;;3.97;2.00;;;;;;;9.61;100.00;100648.03;5015633;28;20210;-79
2022/11/10 04:32:44;;;;;;;8.10;3.33;;;;;;;9.68;100.00;100646.53;5033327;28;20171;-79
2022/11/10 04:35:09;;;;;;;21.63;2.47;;;;;;;9.72;100.00;100649.47;5033449;28;20279;-79
2022/11/10 04:37:36;;;;;;;19.90;2.70;;;;;;;9.69;100.00;100653.63;5033521;28;20184;-79
2022/11/10 04:40:01;;;;;;;8.40;2.43;;;;;;;9.66;100.00;100656.13;5033145;28;20267;-78
2022/11/10 04:42:26;;;;;;;6.63;2.77;;;;;;;9.66;100.00;100667.03;5033420;28;20318;-79
2022/11/10 04:44:51;;;;;;;2.50;2.17;;;;;;;9.65;100.00;100668.94;5032892;28;20705;-79
2022/11/10 04:47:17;;;;;;;13.67;3.23;;;;;;;9.63;100.00;100673.91;5033380;28;20172;-80
2022/11/10 04:49:42;;;;;;;6.07;4.13;;;;;;;9.66;100.00;100659.66;5033084;28;20630;-73
2022/11/10 04:52:07;;;;;;;1.30;1.20;;;;;;;9.71;100.00;100677.88;5033917;28;20172;-75
2022/11/10 04:54:32;;;;;;;3.77;2.10;;;;;;;9.75;100.00;100681.63;5035194;28;20233;-74
2022/11/10 04:56:58;;;;;;;2.77;2.57;;;;;;;9.76;100.00;100688.69;5033572;28;20274;-74
2022/11/10 04:59:23;;;;;;;7.30;3.63;;;;;;;9.78;100.00;100695.47;5033195;28;20176;-73
2022/11/10 05:01:48;;;;;;;11.63;4.03;;;;;;;9.77;100.00;100695.75;5032867;28;20168;-74
2022/11/10 05:04:14;;;;;;;6.03;3.63;;;;;;;9.76;100.00;100703.13;5032878;28;20180;-74
2022/11/10 05:06:39;;;;;;;11.33;3.10;;;;;;;9.75;100.00;100711.63;5032810;28;20171;-73
2022/11/10 05:09:04;;;;;;;4.77;3.03;;;;;;;9.78;100.00;100711.03;5032658;28;20176;-74
2022/11/10 05:11:29;;;;;;;1.83;1.57;;;;;;;9.80;100.00;100719.72;5032735;28;20195;-73
2022/11/10 05:13:55;;;;;;;6.77;3.27;;;;;;;9.82;100.00;100720.22;5032425;28;20663;-73
2022/11/10 05:16:20;;;;;;;6.33;2.77;;;;;;;9.80;100.00;100723.25;5032560;28;20176;-74
2022/11/10 05:18:45;;;;;;;26.33;1.83;;;;;;;9.82;100.00;100731.13;5032775;28;20649;-74
2022/11/10 05:21:11;;;;;;;8.50;4.80;;;;;;;9.82;100.00;100725.69;5032450;28;20184;-74
2022/11/10 05:23:39;;;;;;;5.10;4.13;;;;;;;9.83;100.00;100736.28;5032119;28;20176;-74
2022/11/10 05:26:09;;;;;;;2.43;2.23;;;;;;;9.84;100.00;100731.66;5032250;28;20565;-74
2022/11/10 05:28:35;;;;;;;8.43;1.63;;;;;;;9.87;100.00;100730.25;5032333;28;20176;-73
2022/11/10 05:31:00;;;;;;;12.40;3.37;;;;;;;9.88;100.00;100727.22;5032124;28;20207;-74
2022/11/10 05:33:25;;;;;;;5.90;3.47;;;;;;;9.89;100.00;100731.56;5032078;28;20254;-73
2022/11/10 05:35:51;;;;;;;6.13;3.93;;;;;;;9.90;100.00;100722.28;5029161;28;20623;-73
2022/11/10 05:38:16;;;;;;;2.10;2.00;;;;;;;9.92;100.00;100736.44;5030064;28;20183;-74
2022/11/10 05:40:42;;;;;;;4.73;4.40;;;;;;;9.96;100.00;100736.63;5031889;28;20227;-74
2022/11/10 05:43:07;;;;;;;2.73;2.53;;;;;;;10.00;100.00;100749.41;5031748;28;20176;-74
2022/11/10 05:45:33;;;;;;;1.33;1.23;;;;;;;10.03;100.00;100758.91;5032033;28;20198;-74
2022/11/10 05:47:58;;;;;;;3.03;2.83;;;;;;;10.05;100.00;100756.69;5031937;28;20620;-74
2022/11/10 05:50:24;;;;;;;4.30;2.73;;;;;;;10.03;100.00;100743.34;5031796;28;20207;-74
2022/11/10 05:52:51;;;;;;;8.33;3.93;;;;;;;10.05;100.00;100759.41;5013946;28;20407;-73
2022/11/10 05:55:20;;;;;;;5.23;3.80;;;;;;;10.07;100.00;100768.09;5031515;28;20167;-74
2022/11/10 05:57:47;;;;;;;3.13;2.90;;;;;;;10.09;100.00;100769.41;5031651;28;20255;-75
2022/11/10 06:00:15;;;;;;;3.60;1.10;;;;;;;10.11;100.00;100772.66;5031728;28;20168;-74
2022/11/10 06:02:42;;;;;;;8.27;1.97;;;;;;;10.13;100.00;100770.47;5031491;28;20179;-74
2022/11/10 06:05:08;;;;;;;7.43;3.40;;;;;;;10.13;100.00;100781.38;5031459;28;20242;-74
2022/11/10 06:07:33;;;;;;;8.10;3.77;;;;;;;10.14;100.00;100785.72;5031619;28;20168;-74
2022/11/10 06:09:59;;;;;;;3.67;2.80;;;;;;;10.15;100.00;100789.25;5031339;28;20202;-73
2022/11/10 06:12:24;;;;;;;6.37;2.77;;;;;;;10.14;100.00;100796.66;5031491;28;20335;-74
2022/11/10 06:14:50;;;;;;;18.33;4.13;;;;;;;10.16;100.00;100799.06;5031363;28;20172;-74
2022/11/10 06:17:16;;;;;;;1.50;1.50;;;;;;;10.18;100.00;100796.03;5031432;28;20180;-75
2022/11/10 06:19:42;;;;;;;1.80;1.70;;;;;;;10.16;100.00;100799.06;5031339;28;20180;-75
2022/11/10 06:22:07;;;;;;;1.77;1.67;;;;;;;10.18;100.00;100815.97;5031316;28;20168;-74
2022/11/10 06:24:32;;;;;;;2.03;1.93;;;;;;;10.18;100.00;100820.63;5031247;28;20179;-74
2022/11/10 06:26:58;;;;;;;8.10;1.70;;;;;;;10.17;100.00;100821.72;5031221;28;20179;-74
2022/11/10 06:29:23;;;;;;;5.60;2.67;;;;;;;10.14;100.00;100834.88;5031333;28;20281;-74
2022/11/10 06:31:48;;;;;;;9.03;2.70;;;;;;;10.13;100.00;100835.16;5031504;28;20172;-74
2022/11/10 06:34:13;;;;;;;5.97;3.67;;;;;;;10.14;100.00;100843.06;5030549;28;20174;-74
2022/11/10 06:36:39;;;;;;;6.67;1.47;;;;;;;10.13;100.00;100840.63;5031021;28;20168;-74
2022/11/10 06:39:05;;;;;;;2.50;2.30;;;;;;;10.13;100.00;100835.16;5031121;28;20530;-78
2022/11/10 06:41:30;;;;;;;11.43;3.27;;;;;;;10.14;100.00;100831.34;5031209;28;20176;-73
2022/11/10 06:43:56;;;;;;;1.90;1.80;;;;;;;10.14;100.00;100836.78;5030930;28;20478;-78
2022/11/10 06:46:21;;;;;;;12.60;2.73;;;;;;;10.14;100.00;100842.25;5031030;28;20643;-76
2022/11/10 06:48:46;;;;;;;3.47;1.47;;;;;;;10.16;100.00;100847.41;5031331;28;20168;-79
2022/11/10 06:51:12;;;;;;;2.97;2.37;;;;;;;10.16;100.00;100856.41;5030741;28;20211;-78
2022/11/10 06:53:37;;;;;;;3.10;1.83;;;;;;;10.16;100.00;100856.41;5030958;28;20244;-79
2022/11/10 06:56:02;;;;;;;1.90;0.90;;;;;;;10.17;100.00;100868.16;5030715;28;20186;-78
2022/11/10 06:58:28;;;;;;;1.10;1.10;;;;;;;10.15;100.00;100862.97;5030801;28;20281;-75
2022/11/10 07:00:53;;;;;;;0.43;0.43;;;;;;;10.13;100.00;100876.94;5030964;28;20183;-77
2022/11/10 07:03:18;;;;;;;3.93;2.43;;;;;;;10.12;100.00;100888.94;5030845;28;20171;-77
2022/11/10 07:05:43;;;;;;;5.73;2.50;;;;;;;10.10;100.00;100884.88;5030724;28;20580;-77
2022/11/10 07:08:15;;;;;;;3.03;1.53;;;;;;;10.13;100.00;100889.78;5012884;28;20182;-77
2022/11/10 07:10:41;;;;;;;8.30;2.60;;;;;;;10.14;100.00;100894.13;5030623;28;20207;-77
2022/11/10 07:13:08;;;;;;;3.70;2.87;;;;;;;10.18;100.00;100899.78;5030482;28;20674;-78
2022/11/10 07:15:33;;;;;;;9.07;3.50;;;;;;;10.23;100.00;100910.66;5031017;28;20176;-77
2022/11/10 07:17:59;;;;;;;3.93;2.97;;;;;;;10.27;100.00;100906.22;5030424;28;20198;-78
2022/11/10 07:20:27;;;;;;;2.73;2.23;;;;;;;10.29;100.00;100907.56;5030380;28;20267;-77
2022/11/10 07:23:04;;;;;;;3.70;3.40;;;;;;;10.29;100.00;100906.75;5012647;28;20263;-77
2022/11/10 07:25:31;;;;;;;1.00;1.00;;;;;;;10.30;100.00;100900.19;5030465;28;20592;-78
2022/11/10 07:27:59;;;;;;;9.70;4.13;;;;;;;10.31;100.00;100921.72;5030518;28;20646;-78
2022/11/10 07:30:25;;;;;;;5.93;3.07;;;;;;;10.31;100.00;100915.47;5030251;28;20207;-76
2022/11/10 07:33:02;;;;;;;6.03;2.13;;;;;;;10.32;100.00;100925.28;5030295;28;20215;-78
2022/11/10 07:35:28;;;;;;;12.87;1.97;;;;;;;10.36;100.00;100931.75;5030387;28;20164;-79
2022/11/10 07:37:55;;;;;;;26.13;1.80;;;;;;;10.40;100.00;100930.03;5030458;28;20176;-78
2022/11/10 07:40:21;;;;;;;12.20;1.03;;;;;;;10.44;100.00;100939.28;5030277;28;20168;-81
2022/11/10 07:42:46;;;;;;;19.40;3.07;;;;;;;10.46;100.00;100948.00;5030187;28;20620;-80
2022/11/10 07:45:11;;;;;;;1.63;1.53;;;;;;;10.47;100.00;100949.59;5030287;28;20654;-79
2022/11/10 07:47:37;;;;;;;2.83;1.73;;;;;;;10.47;100.00;100949.59;5032860;28;20251;-79
2022/11/10 07:50:03;;;;;;;2.07;1.57;;;;;;;10.47;100.00;100955.06;5033515;28;20192;-81
2022/11/10 07:52:29;;;;;;;6.80;2.17;;;;;;;10.50;100.00;100951.75;5033852;28;20172;-78
2022/11/10 07:54:54;;;;;;;13.07;2.27;;;;;;;10.53;100.00;100953.06;5033544;28;20172;-80
2022/11/10 07:57:19;;;;;;;7.23;2.40;;;;;;;10.55;100.00;100959.84;5034027;28;20653;-78
2022/11/10 07:59:44;;;;;;;5.60;3.00;;;;;;;10.56;100.00;100969.69;5033642;28;20176;-77
2022/11/10 08:02:10;;;;;;;14.47;2.63;;;;;;;10.57;100.00;100967.75;5033896;28;20176;-80
2022/11/10 08:04:36;;;;;;;3.70;2.50;;;;;;;10.59;100.00;100962.81;5033409;28;20190;-78
2022/11/10 08:07:01;;;;;;;1.93;1.83;;;;;;;10.61;100.00;100972.31;5033834;28;20241;-78
2022/11/10 08:09:26;;;;;;;1.00;0.93;;;;;;;10.65;100.00;100973.34;5033458;28;20662;-79
2022/11/10 08:11:52;;;;;;;1.07;1.07;;;;;;;10.71;100.00;100987.75;5033886;28;20595;-77
2022/11/10 08:14:17;;;;;;;2.77;1.00;;;;;;;10.75;100.00;100988.75;5033309;28;20587;-77
2022/11/10 08:16:42;;;;;;;3.87;0.40;;;;;;;10.80;100.00;101005.06;5033562;28;20172;-79
2022/11/10 08:19:08;;;;;;;6.67;1.57;;;;;;;10.85;100.00;101012.38;5033704;28;20175;-78
2022/11/10 08:21:33;;;;;;;5.83;1.20;;;;;;;10.92;100.00;101015.53;5033386;28;20168;-77
2022/11/10 08:23:58;;;;;;;26.43;1.40;;;;;;;10.96;100.00;101013.81;5033209;28;20644;-75
2022/11/10 08:26:24;;;;;;;1.37;1.03;;;;;;;11.02;100.00;101016.19;5033337;28;20617;-85
2022/11/10 08:28:49;;;;;;;2.60;1.10;;;;;;;11.06;100.00;101024.59;5033413;28;20180;-76
2022/11/10 08:31:14;;;;;;;1.23;1.13;;;;;;;11.13;100.00;101024.19;5033209;28;20215;-71
2022/11/10 08:33:39;;;;;;;2.17;1.33;;;;;;;11.21;100.00;101034.44;5033124;28;20171;-84
2022/11/10 08:36:05;;;;;;;7.47;1.40;;;;;;;11.26;100.00;101040.63;5033183;28;20164;-84
2022/11/10 08:38:30;;;;;;;5.20;2.47;;;;;;;11.36;100.00;101044.31;5033089;28;20529;-78
2022/11/10 08:40:56;;;;;;;22.67;2.23;;;;;;;11.41;99.57;101057.88;5033137;28;20180;-83
2022/11/10 08:43:22;;;;;;;4.23;2.57;;;;;;;11.46;98.50;101060.53;5032895;28;20211;-80
2022/11/10 08:45:47;;;;;;;3.43;1.73;;;;;;;11.43;98.07;101055.63;5032880;28;20186;-79
2022/11/10 08:48:15;;;;;;;22.70;2.27;;;;;;;11.45;98.09;101062.47;5033000;28;20263;-82
2022/11/10 08:50:41;;;;;;;2.87;1.10;;;;;;;11.46;97.23;101061.34;5032879;28;20231;-81
2022/11/10 08:53:19;;;;;;;16.03;1.87;;;;;;;11.45;97.78;101057.00;5032663;28;20179;-80
2022/11/10 08:55:45;;;;;;;0.63;0.63;;;;;;;11.47;97.83;101064.91;5032794;28;20178;-82
2022/11/10 08:58:13;;;;;;;5.23;2.53;;;;;;;11.54;97.59;101073.50;5032439;28;20176;-83
2022/11/10 09:00:39;;;;;;;10.03;2.57;;;;;;;11.57;96.16;101075.63;5032892;28;20163;-82
2022/11/10 09:03:24;;;;;;;2.43;1.70;;;;;;;11.67;95.62;101066.41;5032406;28;20172;-82
2022/11/10 09:05:50;;;;;;;1.97;1.33;;;;;;;11.76;95.23;101073.63;5032791;28;20171;-83
2022/11/10 09:08:16;;;;;;;2.33;2.23;;;;;;;11.83;95.11;101084.19;5032572;28;20176;-83
2022/11/10 09:10:44;;;;;;;12.73;2.13;;;;;;;11.82;94.91;101091.59;5032592;28;20563;-82
2022/11/10 09:13:11;;;;;;;4.07;2.17;;;;;;;11.77;94.77;101097.16;5032445;28;20243;-85
2022/11/10 09:15:37;;;;;;;4.27;2.33;;;;;;;11.74;93.99;101097.78;5032479;28;20540;-80
2022/11/10 09:18:06;;;;;;;0.20;0.10;;;;;;;11.74;94.33;101105.97;5032334;28;20199;-82
2022/11/10 09:20:34;;;;;;;16.63;2.60;;;;;;;11.73;94.73;101112.56;5032639;28;20167;-80
2022/11/10 09:23:11;;;;;;;7.23;3.60;;;;;;;11.72;93.64;101115.63;5011970;28;20653;-81
2022/11/10 09:25:37;;;;;;;2.30;1.13;;;;;;;11.72;92.45;101123.81;5025435;28;20179;-81
2022/11/10 09:28:03;;;;;;;6.20;2.63;;;;;;;11.76;90.55;101125.66;5032088;28;20693;-82
2022/11/10 09:30:29;;;;;;;13.80;2.93;;;;;;;11.82;90.29;101118.97;5031949;28;20257;-81
2022/11/10 09:32:56;;;;;;;7.03;2.40;;;;;;;11.85;90.03;101136.72;5031889;28;20176;-82
2022/11/10 09:35:21;;;;;;;10.37;3.17;;;;;;;11.84;89.15;101130.44;5032511;28;20264;-81
2022/11/10 09:37:47;;;;;;;11.40;1.47;;;;;;;11.81;89.45;101133.78;5032084;28;20263;-81
2022/11/10 09:40:22;;;;;;;4.53;2.23;;;;;;;11.84;89.44;101140.56;5031800;28;20190;-81
2022/11/10 09:42:48;;;;;;;7.27;3.10;;;;;;;11.90;89.58;101131.97;5031715;28;20186;-81
2022/11/10 09:45:30;;;;;;;9.03;3.53;;;;;;;12.02;88.91;101128.75;5031824;28;20730;-81
2022/11/10 09:48:01;;;;;;;0.20;0.20;;;;;;;12.15;88.90;101135.31;5031972;28;20267;-83
2022/11/10 09:50:29;;;;;;;2.33;1.77;;;;;;;12.14;88.06;101126.28;5031679;28;20210;-84
2022/11/10 09:52:56;;;;;;;11.70;2.23;;;;;;;12.08;88.52;101137.66;5031619;28;20183;-85
2022/11/10 09:55:33;;;;;;;3.43;2.57;;;;;;;12.02;87.42;101138.88;5031501;28;20178;-85
2022/11/10 09:57:59;;;;;;;8.53;2.20;;;;;;;11.97;88.55;101149.94;5031811;28;20601;-84
2022/11/10 10:00:28;;;;;;;3.20;2.93;;;;;;;11.95;88.56;101149.41;5031613;28;20182;-84
2022/11/10 10:03:00;;;;;;;3.30;1.93;;;;;;;11.93;88.06;101148.91;5031465;28;20172;-83
2022/11/10 10:05:31;;;;;;;7.00;2.50;;;;;;;11.94;88.50;101131.38;5031433;28;20188;-79
2022/11/10 10:08:10;;;;;;;1.80;1.47;;;;;;;11.96;88.19;101151.03;5031497;28;20516;-85
2022/11/10 10:10:38;;;;;;;9.00;2.27;;;;;;;11.98;87.81;101146.88;5030776;28;20349;-83
2022/11/10 10:13:19;;;;;;;1.27;1.03;;;;;;;11.98;88.07;101143.34;5031289;28;20773;-84
2022/11/10 10:16:06;;;;;;;32.47;1.90;;;;;;;11.95;87.85;101133.81;5031129;28;20204;-85
2022/11/10 10:18:51;;;;;;;1.27;0.93;;;;;;;11.97;87.87;101138.97;5031589;28;20636;-84
2022/11/10 10:21:41;;;;;;;2.30;1.20;;;;;;;11.96;88.47;101138.16;5031203;28;20259;-84
2022/11/10 10:24:13;;;;;;;1.70;1.27;;;;;;;12.01;88.85;101145.50;5031005;28;20207;-84
2022/11/10 10:26:43;;;;;;;1.83;1.23;;;;;;;12.08;88.11;101152.16;5031213;28;20242;-81
2022/11/10 10:29:15;;;;;;;4.07;1.20;;;;;;;12.18;87.71;101156.66;5031176;28;20642;-78
2022/11/10 10:31:47;;;;;;;2.67;1.10;;;;;;;12.27;87.32;101157.53;5031084;28;20237;-84
2022/11/10 10:34:15;;;;;;;1.63;0.97;;;;;;;12.37;87.25;101165.56;5013284;28;20210;-84
2022/11/10 10:36:40;;;;;;;11.17;2.33;;;;;;;12.39;87.68;101162.50;5031331;28;20360;-83
2022/11/10 10:39:15;;;;;;;0.63;0.63;;;;;;;12.42;87.46;101165.44;5030724;28;20206;-83
2022/11/10 10:41:44;;;;;;;4.27;1.60;;;;;;;12.51;87.49;101168.28;5030586;28;20672;-84
2022/11/10 10:44:18;;;;;;;10.33;2.13;;;;;;;12.50;86.39;101164.72;5030303;28;20203;-84
2022/11/10 10:46:58;;;;;;;1.60;1.43;;;;;;;12.60;86.21;101171.94;5030628;28;20182;-81
2022/11/10 10:49:26;;;;;;;11.43;2.33;;;;;;;12.74;87.04;101163.69;5030489;28;20432;-84
2022/11/10 10:52:09;;;;;;;6.33;2.77;;;;;;;12.81;86.29;101153.91;5030461;28;20230;-79
2022/11/10 10:54:37;;;;;;;1.60;1.13;;;;;;;12.92;85.86;101143.53;5030206;28;20179;-83
2022/11/10 10:57:16;;;;;;;3.70;1.80;;;;;;;13.05;85.94;101158.31;5030118;28;20172;-83
2022/11/10 10:59:41;;;;;;;3.90;1.50;;;;;;;13.08;84.70;101157.69;5030596;28;20182;-84
2022/11/10 11:02:28;;;;;;;9.73;1.00;;;;;;;13.06;83.92;101160.75;5030489;28;20179;-80
2022/11/10 11:05:11;;;;;;;2.50;1.07;;;;;;;12.99;83.61;101159.53;5030638;28;20184;-82
2022/11/10 11:07:37;;;;;;;4.77;1.90;;;;;;;13.10;83.70;101167.22;5030550;28;20176;-84
2022/11/10 11:10:23;;;;;;;1.20;0.83;;;;;;;13.17;83.13;101166.81;5030135;28;20202;-82
2022/11/10 11:12:48;;;;;;;1.00;0.93;;;;;;;13.19;82.52;101166.53;5012371;28;20717;-85
2022/11/10 11:15:24;;;;;;;1.73;1.60;;;;;;;13.22;82.26;101177.69;5030195;28;20180;-83
2022/11/10 11:17:57;;;;;;;7.73;1.13;;;;;;;13.21;82.08;101178.00;5030158;28;20654;-79
2022/11/10 11:20:34;;;;;;;12.27;1.00;;;;;;;13.29;82.19;101172.56;5013503;28;20262;-82
2022/11/10 11:23:23;;;;;;;10.23;1.90;;;;;;;13.28;80.32;101179.16;5034178;28;20207;-83
2022/11/10 11:25:51;;;;;;;5.00;2.03;;;;;;;13.30;80.58;101187.91;5034253;28;20635;-83
2022/11/10 11:28:26;;;;;;;1.73;0.47;;;;;;;13.29;80.66;101186.28;5034013;28;20234;-84
2022/11/10 11:31:04;;;;;;;3.50;0.80;;;;;;;13.30;80.58;101184.34;5034075;28;20209;-76
2022/11/10 11:33:59;;;;;;;0.63;0.63;;;;;;;13.27;80.14;101195.94;5033952;28;20619;-77
2022/11/10 11:36:40;;;;;;;7.27;1.40;;;;;;;13.04;79.78;101195.09;5034091;28;20207;-81
2022/11/10 11:39:26;;;;;;;1.13;0.87;;;;;;;13.02;81.33;101191.88;5033951;28;20191;-84
2022/11/10 11:42:14;;;;;;;8.40;1.80;;;;;;;13.07;80.60;101208.19;5033961;28;20183;-81